Time;durP1;ratioP1;P1;durP2;ratioP2;P2;SDS_P1;SDS_P2;PMS_P1;PMS_P2;Temp;Humidity;BMP_temperature;BMP_pressure;BME280_temperature;BME280_humidity;BME280_pressure;Samples;Min_cycle;Max_cycle;Signal;HPM_P1;HPM_P2
2022/12/09 00:01:05;;;;;;;164.98;26.60;;;-3275.80;95.40;;;;;;5034340;28;20041;-79
2022/12/09 00:03:31;;;;;;;371.83;49.70;;;-3275.80;95.40;;;;;;5051596;28;20051;-78
2022/12/09 00:05:57;;;;;;;292.67;32.97;;;-3275.80;95.40;;;;;;5035105;28;20423;-78
2022/12/09 00:08:23;;;;;;;386.88;42.80;;;-3275.80;95.40;;;;;;5034938;28;20033;-80
2022/12/09 00:10:48;;;;;;;179.35;24.48;;;-3275.70;95.40;;;;;;5002297;28;20102;-80
2022/12/09 00:13:14;;;;;;;147.52;19.13;;;-3275.70;95.30;;;;;;5018477;28;20037;-79
2022/12/09 00:15:42;;;;;;;326.45;28.98;;;-3275.70;95.50;;;;;;5034930;28;20045;-79
2022/12/09 00:18:09;;;;;;;390.15;29.42;;;-3275.70;95.50;;;;;;5051435;28;20063;-78
2022/12/09 00:20:35;;;;;;;252.85;23.23;;;-3275.60;95.60;;;;;;5034990;28;20047;-78
2022/12/09 00:23:01;;;;;;;267.63;24.25;;;-3275.60;95.60;;;;;;5034942;28;20045;-79
2022/12/09 00:25:26;;;;;;;214.48;19.60;;;-3275.60;95.70;;;;;;5051391;28;20041;-78
2022/12/09 00:27:52;;;;;;;164.93;17.27;;;-3275.50;95.80;;;;;;5034754;28;20033;-79
2022/12/09 00:30:18;;;;;;;252.07;23.63;;;-3275.50;96.00;;;;;;5051310;28;20037;-77
2022/12/09 00:32:43;;;;;;;196.27;17.70;;;-3275.50;95.90;;;;;;5034683;28;20040;-79
2022/12/09 00:35:09;;;;;;;175.15;19.00;;;-3275.50;96.00;;;;;;5034355;28;20076;-79
2022/12/09 00:37:35;;;;;;;294.85;29.08;;;-3275.50;96.10;;;;;;5054475;28;20086;-79
2022/12/09 00:40:00;;;;;;;69.57;12.50;;;-3275.40;96.00;;;;;;5054820;28;20036;-78
2022/12/09 00:42:26;;;;;;;192.18;22.00;;;-3275.40;96.10;;;;;;5071525;28;20036;-80
2022/12/09 00:44:52;;;;;;;205.75;19.42;;;-3275.50;96.20;;;;;;5071423;28;20079;-78
2022/12/09 00:47:17;;;;;;;137.75;19.77;;;-3275.40;96.20;;;;;;5054370;28;20554;-79
2022/12/09 00:49:43;;;;;;;289.73;29.58;;;-3275.50;96.20;;;;;;5054432;28;20136;-79
2022/12/09 00:52:09;;;;;;;167.25;20.67;;;-3275.50;96.30;;;;;;5033765;28;20048;-78
2022/12/09 00:54:34;;;;;;;247.45;23.85;;;-3275.50;96.30;;;;;;5034803;28;20115;-78
2022/12/09 00:57:00;;;;;;;181.25;21.90;;;-3275.50;96.40;;;;;;5034780;28;20132;-77
2022/12/09 00:59:25;;;;;;;235.43;24.65;;;-3275.60;96.50;;;;;;5052137;28;20052;-78
2022/12/09 01:01:51;;;;;;;200.85;23.30;;;-3275.60;96.40;;;;;;5038477;28;20045;-79
2022/12/09 01:04:17;;;;;;;150.88;21.02;;;-3275.60;96.50;;;;;;5021939;28;20056;-79
2022/12/09 01:06:43;;;;;;;323.00;31.88;;;-3275.60;96.60;;;;;;5038135;28;20048;-79
2022/12/09 01:09:08;;;;;;;204.55;22.42;;;-3275.60;96.60;;;;;;5061690;28;20037;-78
2022/12/09 01:11:34;;;;;;;119.57;19.20;;;-3275.60;96.60;;;;;;5074927;28;20394;-80
2022/12/09 01:14:01;;;;;;;68.43;14.25;;;-3275.60;96.50;;;;;;5058051;28;20519;-77
2022/12/09 01:16:30;;;;;;;78.68;15.63;;;-3275.60;96.50;;;;;;5058162;28;20052;-79
2022/12/09 01:18:59;;;;;;;97.45;16.42;;;-3275.60;96.40;;;;;;5057814;28;20047;-79
2022/12/09 01:21:26;;;;;;;84.25;15.25;;;-3275.50;96.40;;;;;;5074223;28;20076;-78
2022/12/09 01:23:52;;;;;;;64.97;14.52;;;-3275.40;96.30;;;;;;5054460;28;20107;-78
2022/12/09 01:26:18;;;;;;;62.00;14.27;;;-3275.40;96.20;;;;;;5029586;28;20128;-78
2022/12/09 01:28:43;;;;;;;79.65;15.10;;;-3275.30;96.20;;;;;;5054397;28;20136;-79
2022/12/09 01:31:21;;;;;;;100.93;17.08;;;-3275.30;96.20;;;;;;5054362;28;20037;-79
2022/12/09 01:33:47;;;;;;;134.65;19.60;;;-3275.20;96.10;;;;;;5037803;28;20067;-78
2022/12/09 01:36:16;;;;;;;178.43;21.17;;;-3275.20;96.20;;;;;;5054460;28;20049;-79
2022/12/09 01:38:43;;;;;;;88.95;15.88;;;-3275.20;96.20;;;;;;5054086;28;20037;-78
2022/12/09 01:41:08;;;;;;;84.20;16.92;;;-3275.10;96.10;;;;;;5037453;28;20048;-78
2022/12/09 01:43:34;;;;;;;84.18;18.95;;;-3275.10;96.10;;;;;;5021019;28;20123;-79
2022/12/09 01:46:00;;;;;;;51.97;15.57;;;-3275.10;96.20;;;;;;5053989;28;20400;-79
2022/12/09 01:48:45;;;;;;;41.65;13.93;;;-3275.10;96.20;;;;;;5004288;28;20107;-79
2022/12/09 01:51:15;;;;;;;39.15;13.70;;;-3275.10;96.20;;;;;;5053572;28;20524;-79
2022/12/09 01:53:44;;;;;;;33.17;14.23;;;-3275.10;96.10;;;;;;5053934;28;20052;-78
2022/12/09 01:56:20;;;;;;;35.92;13.50;;;-3275.10;96.10;;;;;;5054023;28;20048;-78
2022/12/09 01:58:47;;;;;;;26.48;12.35;;;-3275.10;96.20;;;;;;5037080;28;20488;-78
2022/12/09 02:01:14;;;;;;;35.63;12.93;;;-3275.10;96.20;;;;;;5053672;28;20049;-79
2022/12/09 02:03:39;;;;;;;64.18;14.23;;;-3275.10;96.20;;;;;;5053948;28;20098;-78
2022/12/09 02:06:05;;;;;;;46.60;14.40;;;-3275.10;96.20;;;;;;5053513;28;20481;-79
2022/12/09 02:08:31;;;;;;;27.20;13.52;;;-3275.10;96.20;;;;;;5036998;28;20480;-77
2022/12/09 02:11:15;;;;;;;28.95;12.45;;;-3275.10;96.20;;;;;;5053305;28;20403;-77
2022/12/09 02:14:22;;;;;;;22.40;11.98;;;-3275.00;96.20;;;;;;5036919;28;20048;-78
2022/12/09 02:17:15;;;;;;;33.35;14.88;;;-3275.00;96.10;;;;;;5044588;28;20401;-79
2022/12/09 02:20:12;;;;;;;23.70;12.68;;;-3275.00;96.10;;;;;;5036858;28;20044;-79
2022/12/09 02:22:45;;;;;;;18.77;12.13;;;-3275.00;96.20;;;;;;5053350;28;20044;-79
2022/12/09 02:25:43;;;;;;;21.23;12.95;;;-3275.00;96.30;;;;;;5036659;28;20052;-79
2022/12/09 02:28:29;;;;;;;22.92;13.57;;;-3275.00;96.40;;;;;;5033706;28;20049;-77
2022/12/09 02:31:08;;;;;;;23.95;13.73;;;-3275.00;96.20;;;;;;5057172;28;20043;-77
2022/12/09 02:33:34;;;;;;;21.13;12.95;;;-3275.00;96.20;;;;;;5073156;28;20047;-78
2022/12/09 02:36:08;;;;;;;22.30;13.07;;;-3275.00;96.30;;;;;;5073112;28;20036;-77
2022/12/09 02:38:36;;;;;;;20.05;12.57;;;-3275.00;96.30;;;;;;5073242;28;20048;-79
2022/12/09 02:41:27;;;;;;;19.33;12.25;;;-3275.00;96.20;;;;;;5073208;28;20386;-78
2022/12/09 02:44:00;;;;;;;22.02;13.38;;;-3275.10;96.30;;;;;;5055949;28;20049;-78
2022/12/09 02:46:27;;;;;;;22.88;13.40;;;-3275.10;96.30;;;;;;5072926;28;20040;-77
2022/12/09 02:48:56;;;;;;;21.92;12.65;;;-3275.00;96.20;;;;;;5071342;28;20136;-78
2022/12/09 02:51:25;;;;;;;26.73;14.25;;;-3275.10;96.20;;;;;;5073066;28;20389;-78
2022/12/09 02:53:58;;;;;;;23.85;13.82;;;-3275.10;96.20;;;;;;5072622;28;20044;-79
2022/12/09 02:56:25;;;;;;;23.77;13.98;;;-3275.10;96.30;;;;;;5072632;28;20489;-79
2022/12/09 02:58:51;;;;;;;21.35;12.82;;;-3275.20;96.30;;;;;;5072537;28;20041;-78
2022/12/09 03:01:24;;;;;;;25.75;14.32;;;-3275.20;96.30;;;;;;5072564;28;20037;-78
2022/12/09 03:03:52;;;;;;;23.55;13.48;;;-3275.20;96.30;;;;;;5054701;28;20040;-77
2022/12/09 03:06:19;;;;;;;26.25;14.68;;;-3275.30;96.40;;;;;;5055674;28;20040;-79
2022/12/09 03:08:57;;;;;;;31.02;14.88;;;-3275.30;96.30;;;;;;5039177;28;20036;-79
2022/12/09 03:11:23;;;;;;;28.55;15.85;;;-3275.30;96.30;;;;;;5072320;28;20036;-78
2022/12/09 03:13:52;;;;;;;28.05;14.90;;;-3275.30;96.40;;;;;;5055612;28;20097;-77
2022/12/09 03:16:45;;;;;;;28.63;14.90;;;-3275.40;96.40;;;;;;5072235;28;20037;-79
2022/12/09 03:19:19;;;;;;;26.50;14.27;;;-3275.40;96.40;;;;;;5072205;28;20040;-79
2022/12/09 03:21:48;;;;;;;27.15;14.20;;;-3275.40;96.40;;;;;;5071117;28;20046;-77
2022/12/09 03:24:18;;;;;;;26.02;13.93;;;-3275.50;96.40;;;;;;5071636;28;20373;-79
2022/12/09 03:26:47;;;;;;;29.75;14.40;;;-3275.50;96.40;;;;;;5072138;28;20040;-78
2022/12/09 03:29:19;;;;;;;26.33;14.82;;;-3275.60;96.40;;;;;;5071964;28;20048;-77
2022/12/09 03:31:46;;;;;;;28.92;14.10;;;-3275.60;96.30;;;;;;5072054;28;20036;-79
2022/12/09 03:34:18;;;;;;;24.55;13.95;;;-3275.60;96.40;;;;;;5055404;28;20063;-77
2022/12/09 03:36:47;;;;;;;27.58;14.85;;;-3275.70;96.30;;;;;;5072007;28;20404;-77
2022/12/09 03:39:15;;;;;;;27.90;14.02;;;-3275.70;96.30;;;;;;5071825;28;20076;-77
2022/12/09 03:41:49;;;;;;;25.05;14.13;;;-3275.70;96.30;;;;;;5071853;28;20040;-78
2022/12/09 03:44:29;;;;;;;23.90;13.43;;;-3275.70;96.20;;;;;;5055579;28;20483;-77
2022/12/09 03:46:55;;;;;;;26.75;13.80;;;-3275.80;96.20;;;;;;5071755;28;20484;-77
2022/12/09 03:49:21;;;;;;;25.35;13.20;;;-3275.80;96.10;;;;;;5071797;28;20098;-78
2022/12/09 03:52:01;;;;;;;33.88;16.13;;;-3275.80;96.10;;;;;;5071800;28;20086;-79
2022/12/09 03:54:41;;;;;;;21.58;13.00;;;-3275.80;96.00;;;;;;5070508;28;20473;-78
2022/12/09 03:57:11;;;;;;;24.08;13.23;;;-3275.90;96.00;;;;;;5054970;28;20485;-77
2022/12/09 03:59:37;;;;;;;22.83;11.93;;;-3275.80;96.00;;;;;;5071803;28;20059;-79
2022/12/09 04:02:05;;;;;;;24.73;13.55;;;-3275.80;95.90;;;;;;5055061;28;20048;-78
2022/12/09 04:04:32;;;;;;;24.10;13.05;;;-3275.90;95.90;;;;;;5071944;28;20044;-78
2022/12/09 04:06:58;;;;;;;22.00;13.43;;;-3275.90;95.90;;;;;;5071718;28;20404;-79
2022/12/09 04:09:24;;;;;;;23.33;12.93;;;-3275.90;95.80;;;;;;5071976;28;20401;-78
2022/12/09 04:11:50;;;;;;;22.65;12.50;;;-3275.90;95.80;;;;;;5070497;28;20032;-77
2022/12/09 04:14:16;;;;;;;24.13;11.57;;;-3275.80;95.70;;;;;;5071573;28;20040;-78
2022/12/09 04:16:43;;;;;;;24.45;12.85;;;-3275.80;95.70;;;;;;5071792;28;20041;-76
2022/12/09 04:19:08;;;;;;;20.08;12.50;;;-3275.90;95.70;;;;;;5071406;28;20047;-79
2022/12/09 04:21:34;;;;;;;22.08;12.85;;;-3275.80;95.50;;;;;;5071509;28;20036;-79
2022/12/09 04:24:00;;;;;;;22.13;13.70;;;-3275.80;95.60;;;;;;5071499;28;20409;-77
2022/12/09 04:26:25;;;;;;;22.83;13.65;;;-3275.80;95.50;;;;;;5054762;28;20041;-77
2022/12/09 04:28:51;;;;;;;21.63;12.43;;;-3275.80;95.50;;;;;;5053592;28;20039;-79
2022/12/09 04:31:18;;;;;;;24.70;13.13;;;-3275.70;95.40;;;;;;5054761;28;20037;-79
2022/12/09 04:33:44;;;;;;;24.80;13.35;;;-3275.70;95.40;;;;;;5054821;28;20047;-78
2022/12/09 04:36:16;;;;;;;24.38;13.63;;;-3275.70;95.50;;;;;;5058697;28;20044;-78
2022/12/09 04:38:43;;;;;;;22.60;12.25;;;-3275.70;95.50;;;;;;5075540;28;20103;-79
2022/12/09 04:41:09;;;;;;;22.02;13.52;;;-3275.70;95.50;;;;;;5075296;28;20105;-78
2022/12/09 04:43:35;;;;;;;23.63;14.35;;;-3275.70;95.50;;;;;;5075269;28;20131;-79
2022/12/09 04:46:03;;;;;;;25.80;13.50;;;-3275.70;95.40;;;;;;5064780;28;20037;-79
2022/12/09 04:48:29;;;;;;;21.52;13.18;;;-3275.60;95.30;;;;;;5054817;28;20061;-78
2022/12/09 04:50:55;;;;;;;24.67;13.63;;;-3275.60;95.40;;;;;;5038420;28;20495;-78
2022/12/09 04:53:21;;;;;;;22.02;12.43;;;-3275.60;95.40;;;;;;5055051;28;20043;-79
2022/12/09 04:55:46;;;;;;;20.48;12.50;;;-3275.60;95.50;;;;;;5054949;28;20401;-78
2022/12/09 04:58:12;;;;;;;24.15;13.50;;;-3275.60;95.40;;;;;;5038322;28;20080;-77
2022/12/09 05:00:38;;;;;;;24.02;13.60;;;-3275.60;95.30;;;;;;5054902;28;20043;-79
2022/12/09 05:03:04;;;;;;;25.52;11.90;;;-3275.50;95.20;;;;;;5038072;28;20037;-79
2022/12/09 05:05:29;;;;;;;24.13;13.38;;;-3275.50;95.20;;;;;;5038407;28;20041;-77
2022/12/09 05:07:55;;;;;;;22.58;12.50;;;-3275.50;95.20;;;;;;5038078;28;20485;-78
2022/12/09 05:10:21;;;;;;;23.98;12.60;;;-3275.50;95.10;;;;;;5054673;28;20036;-78
2022/12/09 05:12:47;;;;;;;22.55;12.65;;;-3275.40;95.10;;;;;;5054715;28;20048;-79
2022/12/09 05:15:12;;;;;;;22.10;12.48;;;-3275.40;95.10;;;;;;5038387;28;20033;-78
2022/12/09 05:17:38;;;;;;;20.88;12.38;;;-3275.40;95.00;;;;;;5037613;28;20476;-76
2022/12/09 05:20:05;;;;;;;22.75;12.32;;;-3275.30;94.90;;;;;;5074577;28;20119;-79
2022/12/09 05:22:30;;;;;;;23.48;13.55;;;-3275.30;95.00;;;;;;5074460;28;20033;-77
2022/12/09 05:24:56;;;;;;;27.73;13.63;;;-3275.30;95.10;;;;;;5057773;28;20097;-77
2022/12/09 05:27:22;;;;;;;23.58;12.82;;;-3275.30;95.20;;;;;;5057668;28;20072;-78
2022/12/09 05:29:47;;;;;;;26.15;15.60;;;-3275.30;95.20;;;;;;5057739;28;20123;-79
2022/12/09 05:32:13;;;;;;;27.13;14.82;;;-3275.30;95.20;;;;;;5057546;28;20047;-78
2022/12/09 05:34:38;;;;;;;28.08;16.77;;;-3275.30;95.20;;;;;;5064218;28;20384;-79
2022/12/09 05:37:04;;;;;;;26.25;15.60;;;-3275.30;95.30;;;;;;5037853;28;20398;-78
2022/12/09 05:39:30;;;;;;;24.02;14.32;;;-3275.30;95.20;;;;;;5004830;28;20404;-79
2022/12/09 05:41:56;;;;;;;25.23;14.68;;;-3275.30;95.30;;;;;;5037818;28;20045;-80
2022/12/09 05:44:21;;;;;;;24.70;13.25;;;-3275.30;95.30;;;;;;5037590;28;20128;-79
2022/12/09 05:46:47;;;;;;;24.63;13.20;;;-3275.40;95.30;;;;;;5052858;28;20045;-76
2022/12/09 05:49:13;;;;;;;23.80;13.52;;;-3275.40;95.40;;;;;;5053373;28;20436;-78
2022/12/09 05:51:38;;;;;;;25.00;14.23;;;-3275.40;95.50;;;;;;5053980;28;20107;-77
2022/12/09 05:54:05;;;;;;;27.23;15.35;;;-3275.40;95.50;;;;;;5037331;28;20041;-77
2022/12/09 05:56:31;;;;;;;27.55;15.18;;;-3275.40;95.60;;;;;;5037220;28;20074;-77
2022/12/09 05:58:57;;;;;;;26.10;14.07;;;-3275.40;95.60;;;;;;5053791;28;20044;-78
2022/12/09 06:01:24;;;;;;;27.67;15.45;;;-3275.40;95.70;;;;;;5053928;28;20045;-77
2022/12/09 06:03:51;;;;;;;27.08;14.93;;;-3275.50;95.80;;;;;;5053675;28;20041;-78
2022/12/09 06:06:19;;;;;;;29.80;15.38;;;-3275.50;95.70;;;;;;5053463;28;20489;-77
2022/12/09 06:08:45;;;;;;;31.00;16.48;;;-3275.50;95.80;;;;;;5053899;28;20099;-76
2022/12/09 06:11:19;;;;;;;33.85;15.60;;;-3275.50;96.00;;;;;;5053624;28;20073;-77
2022/12/09 06:13:45;;;;;;;30.92;15.43;;;-3275.50;96.00;;;;;;5053558;28;20037;-77
2022/12/09 06:16:13;;;;;;;29.85;15.65;;;-3275.50;96.00;;;;;;5053681;28;20139;-78
2022/12/09 06:18:39;;;;;;;36.92;17.90;;;-3275.50;96.20;;;;;;5053630;28;20398;-77
2022/12/09 06:21:06;;;;;;;34.80;17.77;;;-3275.60;96.20;;;;;;5056074;28;20443;-77
2022/12/09 06:23:34;;;;;;;35.00;16.92;;;-3275.60;96.10;;;;;;5062498;28;20067;-78
2022/12/09 06:26:00;;;;;;;34.85;17.67;;;-3275.60;96.20;;;;;;5061362;28;20048;-79
2022/12/09 06:28:26;;;;;;;36.50;18.00;;;-3275.70;96.20;;;;;;5064700;28;20033;-77
2022/12/09 06:30:52;;;;;;;40.22;18.48;;;-3275.60;96.10;;;;;;5061810;28;20036;-79
2022/12/09 06:33:18;;;;;;;37.47;18.77;;;-3275.60;96.10;;;;;;5040192;28;20429;-78
2022/12/09 06:35:43;;;;;;;42.78;20.88;;;-3275.60;96.00;;;;;;5073407;28;20442;-78
2022/12/09 06:38:09;;;;;;;53.53;24.67;;;-3275.60;96.10;;;;;;5072898;28;20477;-77
2022/12/09 06:40:43;;;;;;;58.45;28.05;;;-3275.60;96.00;;;;;;5056424;28;20131;-78
2022/12/09 06:43:09;;;;;;;48.28;24.20;;;-3275.60;96.00;;;;;;5072889;28;20044;-77
2022/12/09 06:45:38;;;;;;;52.33;28.00;;;-3275.60;96.00;;;;;;5072756;28;20044;-77
2022/12/09 06:48:04;;;;;;;48.75;26.98;;;-3275.60;96.00;;;;;;5056180;28;20043;-77
2022/12/09 06:50:30;;;;;;;66.90;40.38;;;-3275.60;96.00;;;;;;5072761;28;20052;-77
2022/12/09 06:52:56;;;;;;;56.63;30.65;;;-3275.60;96.10;;;;;;5039514;28;20403;-77
2022/12/09 06:55:22;;;;;;;56.00;25.73;;;-3275.70;96.10;;;;;;5072737;28;20043;-77
2022/12/09 06:57:47;;;;;;;56.83;28.30;;;-3275.70;96.00;;;;;;5072329;28;20530;-77
2022/12/09 07:00:14;;;;;;;65.85;30.60;;;-3275.80;96.00;;;;;;5072681;28;20044;-76
2022/12/09 07:02:39;;;;;;;64.00;31.15;;;-3275.80;96.10;;;;;;5072509;28;20049;-78
2022/12/09 07:05:05;;;;;;;52.50;26.73;;;-3275.80;96.20;;;;;;5055947;28;20036;-77
2022/12/09 07:07:32;;;;;;;63.35;28.23;;;-3275.80;96.20;;;;;;5055730;28;20044;-77
2022/12/09 07:10:00;;;;;;;58.63;28.90;;;-3275.80;96.20;;;;;;5072465;28;20502;-79
2022/12/09 07:12:26;;;;;;;42.67;20.60;;;-3275.90;96.20;;;;;;5072339;28;20093;-78
2022/12/09 07:14:51;;;;;;;36.85;18.90;;;-3275.80;96.00;;;;;;5039540;28;20466;-79
2022/12/09 07:17:19;;;;;;;39.08;19.48;;;-3275.70;95.90;;;;;;5055521;28;20520;-79
2022/12/09 07:19:45;;;;;;;47.28;21.23;;;-3275.70;95.80;;;;;;5055802;28;20392;-79
2022/12/09 07:22:11;;;;;;;46.35;22.00;;;-3275.60;95.80;;;;;;5039153;28;20043;-80
2022/12/09 07:24:37;;;;;;;47.92;22.08;;;-3275.60;95.90;;;;;;5072180;28;20044;-78
2022/12/09 07:27:06;;;;;;;42.10;21.50;;;-3275.60;95.90;;;;;;5055300;28;20037;-80
2022/12/09 07:29:33;;;;;;;50.65;25.27;;;-3275.60;96.00;;;;;;5072187;28;20040;-76
2022/12/09 07:31:58;;;;;;;47.20;24.02;;;-3275.70;96.00;;;;;;5055487;28;20476;-77
2022/12/09 07:34:24;;;;;;;46.65;22.92;;;-3275.70;96.00;;;;;;5055399;28;20124;-78
2022/12/09 07:36:50;;;;;;;72.57;31.23;;;-3275.80;96.00;;;;;;5038462;28;20085;-79
2022/12/09 07:39:17;;;;;;;67.18;30.23;;;-3275.80;96.10;;;;;;5054634;28;20500;-78
2022/12/09 07:41:43;;;;;;;65.43;31.05;;;-3275.80;96.10;;;;;;5054774;28;20433;-77
2022/12/09 07:44:10;;;;;;;70.60;31.45;;;-3275.90;96.10;;;;;;5055273;28;20439;-78
2022/12/09 07:46:36;;;;;;;64.72;32.28;;;-3275.90;96.10;;;;;;5055296;28;20098;-78
2022/12/09 07:49:03;;;;;;;67.20;30.25;;;-3275.90;96.10;;;;;;5071598;28;20055;-78
2022/12/09 07:51:30;;;;;;;69.63;31.50;;;-3275.90;96.10;;;;;;5038509;28;20052;-79
2022/12/09 07:53:56;;;;;;;83.93;32.85;;;-3276.00;96.10;;;;;;5055019;28;20040;-78
2022/12/09 07:56:22;;;;;;;113.40;43.80;;;-3276.00;96.20;;;;;;5055517;28;20040;-78
2022/12/09 07:58:52;;;;;;;261.75;45.80;;;-3276.00;96.30;;;;;;5055342;28;20595;-78
2022/12/09 08:01:20;;;;;;;272.58;49.63;;;-3276.00;96.40;;;;;;5071708;28;20040;-78
2022/12/09 08:03:47;;;;;;;180.27;40.90;;;-3276.10;96.80;;;;;;5071732;28;20492;-78
2022/12/09 08:06:15;;;;;;;231.35;46.80;;;-3276.10;96.80;;;;;;5071785;28;20072;-78
2022/12/09 08:08:41;;;;;;;241.50;45.97;;;-3276.10;96.70;;;;;;5054554;28;20041;-78
2022/12/09 08:11:28;;;;;;;202.52;44.70;;;-3276.20;96.90;;;;;;5054822;28;20036;-78
2022/12/09 08:13:58;;;;;;;215.52;44.03;;;-3276.20;97.10;;;;;;5054269;28;20056;-80
2022/12/09 08:16:25;;;;;;;336.75;57.17;;;-3276.20;97.10;;;;;;5038850;28;20507;-79
2022/12/09 08:18:52;;;;;;;318.73;51.30;;;-3276.30;97.00;;;;;;5071794;28;20093;-78
2022/12/09 08:21:29;;;;;;;248.30;40.67;;;-3276.30;96.90;;;;;;5071420;28;20048;-78
2022/12/09 08:23:57;;;;;;;245.00;42.60;;;-3276.30;96.70;;;;;;5054809;28;20075;-79
2022/12/09 08:26:25;;;;;;;244.43;43.47;;;-3276.20;97.10;;;;;;5071443;28;20055;-80
2022/12/09 08:28:51;;;;;;;336.42;48.97;;;-3276.20;97.30;;;;;;5054676;28;20044;-79
2022/12/09 08:31:23;;;;;;;367.85;57.30;;;-3276.20;97.40;;;;;;5071386;28;20043;-80
2022/12/09 08:33:50;;;;;;;322.77;51.55;;;-3276.20;97.50;;;;;;5071362;28;20040;-78
2022/12/09 08:36:22;;;;;;;394.65;56.08;;;-3276.20;97.70;;;;;;5071605;28;20045;-80
2022/12/09 08:38:48;;;;;;;236.93;45.13;;;-3276.20;97.80;;;;;;5071397;28;20131;-79
2022/12/09 08:41:34;;;;;;;325.80;56.53;;;-3276.20;97.70;;;;;;5071458;28;20044;-79
2022/12/09 08:44:12;;;;;;;288.10;49.78;;;-3276.20;97.70;;;;;;5071228;28;20040;-80
2022/12/09 08:46:41;;;;;;;216.85;45.60;;;-3276.30;97.90;;;;;;5071502;28;20072;-79
2022/12/09 08:49:07;;;;;;;471.10;68.25;;;-3276.30;97.90;;;;;;5071605;28;20055;-79
2022/12/09 08:51:33;;;;;;;305.13;54.88;;;-3276.40;97.90;;;;;;5071308;28;20048;-80
2022/12/09 08:53:59;;;;;;;191.73;46.60;;;-3276.40;97.90;;;;;;5054510;28;20136;-78
2022/12/09 08:56:26;;;;;;;230.60;46.80;;;-3276.50;98.00;;;;;;5038008;28;20131;-79
2022/12/09 08:58:52;;;;;;;294.13;56.88;;;-3276.50;97.90;;;;;;5071052;28;20043;-79
2022/12/09 09:01:20;;;;;;;306.33;58.95;;;-3276.60;97.80;;;;;;5054613;28;20040;-81
2022/12/09 09:03:47;;;;;;;460.58;72.30;;;-3276.60;97.70;;;;;;5071125;28;20040;-80
2022/12/09 09:06:13;;;;;;;223.88;49.85;;;-3276.70;97.90;;;;;;5070980;28;20040;-80
2022/12/09 09:08:39;;;;;;;199.75;49.95;;;-3276.70;97.90;;;;;;5070914;28;20044;-79
2022/12/09 09:11:23;;;;;;;159.20;46.30;;;0.00;98.00;;;;;;5054366;28;20062;-80
2022/12/09 09:13:50;;;;;;;156.40;38.67;;;0.00;97.90;;;;;;5071060;28;20076;-80
2022/12/09 09:16:24;;;;;;;186.02;51.85;;;0.00;98.00;;;;;;5054287;28;20047;-80
2022/12/09 09:18:50;;;;;;;208.30;50.30;;;0.00;97.90;;;;;;5071287;28;20040;-79
2022/12/09 09:21:18;;;;;;;127.90;41.67;;;0.00;97.90;;;;;;5055061;28;20051;-77
2022/12/09 09:23:45;;;;;;;249.23;51.50;;;0.00;97.90;;;;;;5074287;28;20054;-78
2022/12/09 09:26:16;;;;;;;133.48;40.72;;;0.00;97.80;;;;;;5074074;28;20434;-79
2022/12/09 09:28:42;;;;;;;158.63;45.28;;;0.10;97.90;;;;;;5073965;28;20102;-80
2022/12/09 09:31:11;;;;;;;210.30;41.10;;;0.10;97.90;;;;;;5074419;28;20037;-79
2022/12/09 09:33:36;;;;;;;232.60;46.67;;;0.10;97.80;;;;;;5074356;28;20048;-79
2022/12/09 09:36:04;;;;;;;319.42;45.58;;;0.10;97.60;;;;;;5057859;28;20041;-79
2022/12/09 09:38:31;;;;;;;283.98;47.67;;;0.00;97.90;;;;;;5074125;28;20123;-79
2022/12/09 09:40:59;;;;;;;285.23;46.33;;;0.00;97.90;;;;;;5074337;28;20040;-78
2022/12/09 09:43:30;;;;;;;209.23;36.88;;;0.00;97.90;;;;;;5074111;28;20492;-79
2022/12/09 09:45:57;;;;;;;284.52;49.22;;;0.00;98.00;;;;;;5057296;28;20087;-78
2022/12/09 09:48:29;;;;;;;343.13;45.55;;;0.00;98.00;;;;;;5074070;28;20037;-79
2022/12/09 09:50:57;;;;;;;194.43;38.38;;;0.00;97.90;;;;;;5073532;28;20131;-81
2022/12/09 09:53:31;;;;;;;281.98;40.80;;;0.00;98.00;;;;;;5073957;28;20048;-80
2022/12/09 09:56:17;;;;;;;228.55;43.08;;;0.00;98.10;;;;;;5073936;28;20041;-82
2022/12/09 09:59:00;;;;;;;250.80;40.97;;;0.00;97.80;;;;;;5073841;28;20044;-82
2022/12/09 10:01:32;;;;;;;159.98;35.15;;;0.10;98.00;;;;;;5057473;28;20040;-79
2022/12/09 10:04:14;;;;;;;193.50;36.00;;;0.10;98.10;;;;;;5057155;28;20048;-83
2022/12/09 10:06:50;;;;;;;292.60;49.95;;;0.10;98.00;;;;;;5057017;28;20046;-81
2022/12/09 10:09:21;;;;;;;151.20;34.70;;;0.10;97.90;;;;;;5073625;28;20068;-82
2022/12/09 10:12:01;;;;;;;142.10;34.35;;;0.10;97.50;;;;;;5072901;28;20049;-83
2022/12/09 10:14:38;;;;;;;173.35;36.97;;;0.20;97.60;;;;;;5070790;28;20374;-83
2022/12/09 10:17:34;;;;;;;193.75;36.92;;;0.20;97.70;;;;;;5072059;28;20503;-83
2022/12/09 10:20:13;;;;;;;128.52;35.03;;;0.20;97.80;;;;;;5056221;28;20076;-81
2022/12/09 10:22:52;;;;;;;161.32;33.60;;;0.20;97.70;;;;;;5072837;28;20127;-81
2022/12/09 10:25:29;;;;;;;205.82;36.15;;;0.20;97.70;;;;;;5056428;28;20063;-83
2022/12/09 10:28:25;;;;;;;221.43;43.80;;;0.20;97.80;;;;;;5073440;28;20036;-82
2022/12/09 10:30:53;;;;;;;168.85;35.08;;;0.20;97.90;;;;;;5056799;28;20124;-83
2022/12/09 10:33:25;;;;;;;131.15;35.05;;;0.20;97.90;;;;;;5039492;28;20051;-83
2022/12/09 10:35:51;;;;;;;186.30;37.10;;;0.20;98.00;;;;;;5056647;28;20090;-83
2022/12/09 10:38:18;;;;;;;170.68;44.88;;;0.20;97.90;;;;;;5056389;28;20485;-81
2022/12/09 10:40:48;;;;;;;307.48;48.70;;;0.20;97.80;;;;;;5056656;28;20115;-83
2022/12/09 10:43:41;;;;;;;134.90;31.48;;;0.20;97.90;;;;;;5073242;28;20055;-81
2022/12/09 10:46:18;;;;;;;241.20;41.35;;;0.20;98.00;;;;;;5073068;28;20435;-81
2022/12/09 10:48:47;;;;;;;155.68;32.97;;;0.20;98.00;;;;;;5056184;28;20041;-81
2022/12/09 10:51:14;;;;;;;163.07;35.85;;;0.20;97.90;;;;;;5072675;28;20063;-81
2022/12/09 10:53:49;;;;;;;118.93;33.60;;;0.10;98.10;;;;;;5056456;28;20131;-82
2022/12/09 10:56:26;;;;;;;280.20;44.15;;;0.20;98.10;;;;;;5072660;28;20044;-83
2022/12/09 10:59:08;;;;;;;231.95;36.78;;;0.30;98.00;;;;;;5072775;28;20041;-82
2022/12/09 11:01:51;;;;;;;168.68;36.20;;;0.20;97.90;;;;;;5072740;28;20504;-81
2022/12/09 11:04:24;;;;;;;226.05;39.42;;;0.20;98.00;;;;;;5056198;28;20131;-82
2022/12/09 11:06:52;;;;;;;269.10;57.65;;;0.20;98.00;;;;;;5072519;28;20041;-81
2022/12/09 11:09:31;;;;;;;365.60;146.25;;;0.20;98.00;;;;;;5072536;28;20040;-81
2022/12/09 11:11:57;;;;;;;277.55;50.05;;;0.20;98.10;;;;;;5072487;28;20040;-80
2022/12/09 11:14:47;;;;;;;232.23;43.03;;;0.20;98.10;;;;;;5072426;28;20047;-83
2022/12/09 11:17:23;;;;;;;501.08;207.02;;;0.30;98.10;;;;;;5056219;28;20073;-82
2022/12/09 11:20:05;;;;;;;224.90;43.47;;;0.40;98.30;;;;;;5072806;28;20049;-82
2022/12/09 11:22:39;;;;;;;166.20;35.38;;;0.50;98.20;;;;;;5072738;28;20073;-81
2022/12/09 11:25:20;;;;;;;;;;;0.50;98.20;;;;;;5073213;28;20044;-82
2022/12/09 11:28:03;;;;;;;201.27;40.72;;;0.50;98.30;;;;;;5072668;28;19974;-81
2022/12/09 11:31:07;;;;;;;146.82;35.65;;;0.50;98.30;;;;;;5056030;28;20041;-82
2022/12/09 11:33:47;;;;;;;231.70;37.38;;;0.60;98.20;;;;;;5069348;28;20049;-82
2022/12/09 11:36:41;;;;;;;155.82;36.17;;;0.60;98.10;;;;;;5072790;28;20083;-81
2022/12/09 11:39:28;;;;;;;190.27;37.90;;;0.60;98.20;;;;;;5071702;28;20084;-83
2022/12/09 11:42:15;;;;;;;145.68;33.95;;;0.60;98.20;;;;;;5069056;28;20469;-83
2022/12/09 11:44:52;;;;;;;192.90;36.53;;;0.60;98.10;;;;;;5055264;28;20079;-83
2022/12/09 11:47:39;;;;;;;141.13;39.58;;;0.60;98.10;;;;;;5055671;28;20086;-84
2022/12/09 11:50:31;;;;;;;151.80;41.60;;;0.60;98.20;;;;;;5055636;28;20159;-82
2022/12/09 11:53:07;;;;;;;219.82;43.30;;;0.60;98.20;;;;;;5055743;28;20044;-83
2022/12/09 11:55:44;;;;;;;205.45;38.42;;;0.60;98.00;;;;;;5072303;28;20075;-83
2022/12/09 11:58:14;;;;;;;220.23;38.90;;;0.70;98.10;;;;;;5072465;28;20041;-80
2022/12/09 12:01:01;;;;;;;205.75;38.67;;;0.60;98.00;;;;;;5055882;28;20123;-80
2022/12/09 12:03:43;;;;;;;127.20;40.28;;;0.60;98.10;;;;;;5055514;28;20040;-82
2022/12/09 12:06:21;;;;;;;158.23;45.67;;;0.60;98.10;;;;;;5072338;28;20119;-83
2022/12/09 12:09:10;;;;;;;175.30;39.92;;;0.70;98.20;;;;;;5055485;28;20068;-81
2022/12/09 12:11:44;;;;;;;177.05;38.95;;;0.70;98.10;;;;;;5072443;28;20086;-82
2022/12/09 12:14:21;;;;;;;111.93;30.33;;;0.70;98.20;;;;;;5055734;28;20392;-81
2022/12/09 12:17:08;;;;;;;145.95;31.20;;;0.70;98.10;;;;;;5072016;28;20076;-81
2022/12/09 12:19:38;;;;;;;180.25;35.78;;;0.70;98.10;;;;;;5072401;28;20067;-81